Terminal Aerodrome Forecast
Issued by NWS

Home | Current Version | Previous Version | Text Only | Print | Product List | Glossary Off
Versions: 1 2 3 4 5 6 7 8 9 10 11 12 13 14 15 16 17 18 19 20 21 22 23 24 25

000
FTUS43 KLOT 200539
TAFDPA
TAF
KDPA 200539Z 2006/2106 05008KT P6SM OVC015
     FM200900 06012KT P6SM VCSH OVC010
     FM201300 08012KT 4SM -SHRA VCTS OVC007CB
     FM201800 10012G18KT 6SM -DZ BR VCSH OVC009
     FM210100 15008KT P6SM VCSH BKN025
     FM210500 19008KT P6SM SCT025 BKN040=

USA.gov is the U.S. government's official web portal to all federal, state and local government web resources and services.